Benton Harbor, Michigan
Current Conditions -  °F | °C
As of 8:53 PM on Sunday 21 Dec 2014 (Local Time) from KBEH Reporting Station
Haze Haze  
Wind Chill: 23°   Ceiling: Unl
Heat Index: 30°   Visibility: 6mi
Dew Point: 26°   Wind: 7mph
Humidity: 85%   Direction: 130°SE
Pressure: 30.12"   Gusts: NA
Location:  42.12°N, 86.46°W
Report Text: KBEH 220153Z AUTO 13006KT 6SM BR SCT042 M01/M03 A3012 RMK AO2 SLP207 T10111033
Loading
Personal Weather Stations






























Interactive Weather Map New forecast layout! Learn more

10-Day Weather Forecast

Advertisements
Track Severe Weather on mobile